Time;durP1;ratioP1;P1;durP2;ratioP2;P2;SDS_P1;SDS_P2;PMS_P1;PMS_P2;Temp;Humidity;BMP_temperature;BMP_pressure;BME280_temperature;BME280_humidity;BME280_pressure;Samples;Min_cycle;Max_cycle;Signal;HPM_P1;HPM_P2
2021/07/18 00:00:56;;;;;;;38.63;22.13;;;;;;;;;;4969038;28;20022;-73
2021/07/18 00:03:22;;;;;;;38.92;21.65;;;;;;;;;;4968720;28;20054;-73
2021/07/18 00:05:47;;;;;;;41.67;20.83;;;;;;;;;;4970331;28;20027;-73
2021/07/18 00:08:13;;;;;;;42.28;22.40;;;;;;;;;;4952440;28;20023;-73
2021/07/18 00:10:38;;;;;;;45.70;23.13;;;;;;;;;;4952793;28;20444;-73
2021/07/18 00:13:04;;;;;;;43.95;21.90;;;;;;;;;;4970088;28;20113;-74
2021/07/18 00:15:29;;;;;;;38.60;22.60;;;;;;;;;;4952524;28;20394;-73
2021/07/18 00:17:56;;;;;;;44.03;22.05;;;;;;;;;;4953006;28;20019;-74
2021/07/18 00:20:21;;;;;;;42.75;22.80;;;;;;;;;;4969898;28;20047;-73
2021/07/18 00:22:47;;;;;;;46.03;23.60;;;;;;;;;;4952875;28;20066;-74
2021/07/18 00:25:13;;;;;;;42.78;23.42;;;;;;;;;;4952426;28;20166;-74
2021/07/18 00:27:39;;;;;;;46.10;23.77;;;;;;;;;;4970023;28;20034;-74
2021/07/18 00:30:07;;;;;;;42.72;21.92;;;;;;;;;;4970371;28;20123;-73
2021/07/18 00:32:33;;;;;;;42.05;23.92;;;;;;;;;;4952668;28;20054;-73
2021/07/18 00:34:58;;;;;;;45.33;24.83;;;;;;;;;;4954209;28;20035;-73
2021/07/18 00:37:23;;;;;;;45.50;23.92;;;;;;;;;;4955776;28;20097;-73
2021/07/18 00:39:49;;;;;;;48.15;23.98;;;;;;;;;;4955930;28;20022;-72
2021/07/18 00:42:18;;;;;;;44.88;24.35;;;;;;;;;;4955651;28;20058;-73
2021/07/18 00:44:45;;;;;;;43.97;25.55;;;;;;;;;;4972115;28;20471;-73
2021/07/18 00:47:10;;;;;;;43.95;25.17;;;;;;;;;;4973157;28;20022;-74
2021/07/18 00:49:37;;;;;;;48.95;26.52;;;;;;;;;;4955789;28;20118;-73
2021/07/18 00:52:03;;;;;;;49.17;26.42;;;;;;;;;;4973134;28;20033;-73
2021/07/18 00:54:29;;;;;;;53.17;25.40;;;;;;;;;;4973264;28;20203;-73
2021/07/18 00:56:57;;;;;;;49.25;25.60;;;;;;;;;;4956081;28;20490;-73
2021/07/18 00:59:23;;;;;;;52.53;27.48;;;;;;;;;;4972921;28;20034;-74
2021/07/18 01:01:50;;;;;;;43.95;25.95;;;;;;;;;;4973014;28;20035;-74
2021/07/18 01:04:16;;;;;;;55.72;27.05;;;;;;;;;;4955549;28;20101;-73
2021/07/18 01:06:42;;;;;;;57.65;25.52;;;;;;;;;;4972935;28;20039;-74
2021/07/18 01:09:07;;;;;;;56.70;26.67;;;;;;;;;;4955488;28;20031;-74
2021/07/18 01:11:33;;;;;;;48.63;25.38;;;;;;;;;;4971345;28;20515;-73
2021/07/18 01:13:59;;;;;;;50.90;25.27;;;;;;;;;;4972832;28;20089;-73
2021/07/18 01:16:25;;;;;;;44.95;26.67;;;;;;;;;;4972562;28;20041;-74
2021/07/18 01:18:51;;;;;;;48.90;25.92;;;;;;;;;;4972651;28;20085;-73
2021/07/18 01:21:20;;;;;;;47.97;26.15;;;;;;;;;;4954979;28;20034;-73
2021/07/18 01:23:46;;;;;;;52.90;26.30;;;;;;;;;;4972474;28;20027;-72
2021/07/18 01:26:12;;;;;;;50.25;27.08;;;;;;;;;;4972820;28;20081;-74
2021/07/18 01:28:37;;;;;;;48.00;28.13;;;;;;;;;;4955179;28;20073;-74
2021/07/18 01:31:03;;;;;;;58.38;28.27;;;;;;;;;;4972541;28;20033;-74
2021/07/18 01:33:28;;;;;;;48.53;27.15;;;;;;;;;;4954677;28;20033;-74
2021/07/18 01:35:54;;;;;;;46.90;25.58;;;;;;;;;;4955039;28;20030;-73
2021/07/18 01:38:19;;;;;;;49.63;27.20;;;;;;;;;;4954838;28;20463;-73
2021/07/18 01:40:45;;;;;;;56.42;29.08;;;;;;;;;;4954834;28;20078;-74
2021/07/18 01:43:10;;;;;;;51.88;28.73;;;;;;;;;;4954735;28;20066;-75
2021/07/18 01:45:36;;;;;;;52.45;28.98;;;;;;;;;;4971628;28;20130;-73
2021/07/18 01:48:02;;;;;;;52.63;26.92;;;;;;;;;;4954246;28;20035;-73
2021/07/18 01:50:27;;;;;;;57.83;27.15;;;;;;;;;;4971821;28;20026;-73
2021/07/18 01:52:53;;;;;;;50.20;26.67;;;;;;;;;;4972111;28;20120;-73
2021/07/18 01:55:19;;;;;;;44.85;26.63;;;;;;;;;;4954337;28;20479;-73
2021/07/18 01:57:45;;;;;;;52.97;27.02;;;;;;;;;;4954672;28;20034;-74
2021/07/18 02:00:12;;;;;;;55.08;27.33;;;;;;;;;;4972079;28;20118;-73
2021/07/18 02:02:43;;;;;;;47.45;25.00;;;;;;;;;;4971521;28;20042;-73
2021/07/18 02:05:09;;;;;;;51.20;25.77;;;;;;;;;;4971830;28;20167;-73
2021/07/18 02:07:35;;;;;;;47.55;25.52;;;;;;;;;;4971626;28;20030;-73
2021/07/18 02:10:00;;;;;;;52.65;25.52;;;;;;;;;;4954399;28;20368;-73
2021/07/18 02:12:26;;;;;;;51.95;26.05;;;;;;;;;;4971521;28;20035;-73
2021/07/18 02:14:51;;;;;;;49.05;26.40;;;;;;;;;;4971649;28;20023;-73
2021/07/18 02:17:17;;;;;;;44.70;23.63;;;;;;;;;;4953971;28;20475;-73
2021/07/18 02:19:42;;;;;;;40.42;24.02;;;;;;;;;;4953966;28;20045;-72
2021/07/18 02:22:09;;;;;;;44.03;24.23;;;;;;;;;;4971762;28;20053;-73
2021/07/18 02:24:35;;;;;;;45.47;24.25;;;;;;;;;;4971718;28;20027;-73
2021/07/18 02:27:00;;;;;;;41.28;24.13;;;;;;;;;;4971675;28;20027;-73
2021/07/18 02:29:26;;;;;;;44.45;24.02;;;;;;;;;;4971405;28;20026;-73
2021/07/18 02:31:53;;;;;;;43.55;25.17;;;;;;;;;;4971479;28;20034;-72
2021/07/18 02:34:18;;;;;;;47.85;23.92;;;;;;;;;;4953590;28;20027;-73
2021/07/18 02:36:44;;;;;;;42.28;22.67;;;;;;;;;;4971624;28;20026;-72
2021/07/18 02:39:10;;;;;;;45.90;24.20;;;;;;;;;;4953623;28;20026;-72
2021/07/18 02:41:35;;;;;;;43.92;24.35;;;;;;;;;;4970545;28;20094;-73
2021/07/18 02:44:03;;;;;;;45.53;24.33;;;;;;;;;;4953517;28;20129;-72
2021/07/18 02:46:29;;;;;;;41.28;23.70;;;;;;;;;;4970731;28;20039;-72
2021/07/18 02:48:54;;;;;;;48.92;24.60;;;;;;;;;;4969621;28;20035;-72
2021/07/18 02:51:20;;;;;;;51.05;22.85;;;;;;;;;;4953612;28;20065;-73
2021/07/18 02:53:45;;;;;;;41.63;22.52;;;;;;;;;;4953451;28;20486;-73
2021/07/18 02:56:11;;;;;;;44.28;22.63;;;;;;;;;;4970972;28;20062;-73
2021/07/18 02:58:36;;;;;;;39.97;21.80;;;;;;;;;;4970225;28;20034;-73
2021/07/18 03:01:03;;;;;;;34.45;19.80;;;;;;;;;;4969519;28;20031;-73
2021/07/18 03:03:28;;;;;;;41.03;21.52;;;;;;;;;;4970660;28;20053;-73
2021/07/18 03:05:54;;;;;;;42.72;20.98;;;;;;;;;;4953407;28;20467;-74
2021/07/18 03:08:19;;;;;;;33.28;21.30;;;;;;;;;;4970512;28;20027;-73
2021/07/18 03:10:45;;;;;;;39.83;21.65;;;;;;;;;;4970559;28;20058;-74
2021/07/18 03:13:10;;;;;;;42.50;21.52;;;;;;;;;;4953202;28;20042;-73
2021/07/18 03:15:36;;;;;;;35.20;21.90;;;;;;;;;;4953002;28;20042;-73
2021/07/18 03:18:02;;;;;;;33.33;19.80;;;;;;;;;;4971017;28;20419;-74
2021/07/18 03:20:28;;;;;;;33.85;20.13;;;;;;;;;;4970570;28;20027;-73
2021/07/18 03:22:54;;;;;;;46.45;21.67;;;;;;;;;;4953284;28;20030;-73
2021/07/18 03:25:19;;;;;;;37.50;21.38;;;;;;;;;;4970337;28;20117;-74
2021/07/18 03:27:46;;;;;;;36.60;20.95;;;;;;;;;;4953173;28;20038;-73
2021/07/18 03:30:14;;;;;;;53.67;22.30;;;;;;;;;;4970683;28;20677;-73
2021/07/18 03:32:41;;;;;;;43.63;24.80;;;;;;;;;;4952821;28;20089;-73
2021/07/18 03:35:08;;;;;;;42.42;21.35;;;;;;;;;;4952951;28;20052;-73
2021/07/18 03:37:35;;;;;;;45.78;21.13;;;;;;;;;;4970133;28;20035;-72
2021/07/18 03:40:00;;;;;;;43.75;21.23;;;;;;;;;;4953011;28;20041;-73
2021/07/18 03:42:26;;;;;;;43.65;22.40;;;;;;;;;;4970071;28;20177;-73
2021/07/18 03:44:51;;;;;;;37.95;20.05;;;;;;;;;;4953143;28;20026;-73
2021/07/18 03:47:17;;;;;;;41.95;22.95;;;;;;;;;;4970308;28;20394;-73
2021/07/18 03:49:42;;;;;;;41.53;20.75;;;;;;;;;;4953129;28;20331;-74
2021/07/18 03:52:08;;;;;;;42.90;22.33;;;;;;;;;;4953152;28;20039;-73
2021/07/18 03:54:33;;;;;;;41.95;23.17;;;;;;;;;;4970145;28;20118;-73
2021/07/18 03:56:59;;;;;;;37.22;21.95;;;;;;;;;;4970485;28;20096;-73
2021/07/18 03:59:24;;;;;;;43.00;21.88;;;;;;;;;;4952441;28;20042;-73
2021/07/18 04:01:50;;;;;;;48.45;24.98;;;;;;;;;;4969989;28;20033;-74
2021/07/18 04:04:16;;;;;;;37.38;22.75;;;;;;;;;;4970477;28;20022;-74
2021/07/18 04:06:42;;;;;;;43.85;23.98;;;;;;;;;;4970198;28;20026;-74
2021/07/18 04:09:07;;;;;;;45.53;25.50;;;;;;;;;;4970249;28;20042;-74
2021/07/18 04:11:32;;;;;;;46.20;25.52;;;;;;;;;;4973935;28;20031;-74
2021/07/18 04:13:58;;;;;;;49.28;23.08;;;;;;;;;;4956659;28;20035;-74
2021/07/18 04:16:23;;;;;;;47.78;24.00;;;;;;;;;;4973735;28;20031;-73
2021/07/18 04:18:49;;;;;;;40.20;24.63;;;;;;;;;;4955963;28;20034;-73
2021/07/18 04:21:19;;;;;;;51.97;25.17;;;;;;;;;;4956229;28;20037;-73
2021/07/18 04:23:45;;;;;;;45.08;23.88;;;;;;;;;;4955964;28;20041;-73
2021/07/18 04:26:11;;;;;;;51.17;26.23;;;;;;;;;;4973678;28;20027;-73
2021/07/18 04:28:36;;;;;;;47.95;24.73;;;;;;;;;;4973645;28;20153;-74
2021/07/18 04:31:02;;;;;;;46.10;23.65;;;;;;;;;;4973531;28;20047;-73
2021/07/18 04:33:27;;;;;;;45.97;23.50;;;;;;;;;;4955937;28;20027;-74
2021/07/18 04:35:53;;;;;;;40.70;23.63;;;;;;;;;;4956101;28;20121;-74
2021/07/18 04:38:18;;;;;;;43.85;24.00;;;;;;;;;;4955711;28;20081;-73
2021/07/18 04:40:44;;;;;;;49.42;23.42;;;;;;;;;;4971438;28;20043;-73
2021/07/18 04:43:09;;;;;;;47.45;23.30;;;;;;;;;;4971665;28;20055;-73
2021/07/18 04:45:35;;;;;;;44.85;22.40;;;;;;;;;;4972965;28;20027;-73
2021/07/18 04:48:01;;;;;;;46.70;23.13;;;;;;;;;;4973086;28;20040;-74
2021/07/18 04:50:27;;;;;;;43.00;23.10;;;;;;;;;;4972907;28;20046;-73
2021/07/18 04:52:53;;;;;;;54.13;22.77;;;;;;;;;;4955895;28;20031;-74
2021/07/18 04:55:19;;;;;;;48.65;24.23;;;;;;;;;;4973050;28;20101;-72
2021/07/18 04:57:45;;;;;;;43.08;22.85;;;;;;;;;;4972721;28;20108;-72
2021/07/18 05:00:18;;;;;;;48.17;23.92;;;;;;;;;;4973400;28;20082;-73
2021/07/18 05:02:44;;;;;;;49.65;22.55;;;;;;;;;;4955355;28;20033;-73
2021/07/18 05:05:12;;;;;;;43.95;22.27;;;;;;;;;;4955492;28;20122;-73
2021/07/18 05:07:48;;;;;;;45.95;23.55;;;;;;;;;;4955099;28;20035;-73
2021/07/18 05:10:17;;;;;;;38.60;21.00;;;;;;;;;;4972605;28;20027;-73
2021/07/18 05:12:43;;;;;;;41.92;23.75;;;;;;;;;;4972473;28;20031;-73
2021/07/18 05:15:09;;;;;;;47.08;21.50;;;;;;;;;;4955355;28;20034;-74
2021/07/18 05:17:35;;;;;;;37.42;21.83;;;;;;;;;;4955231;28;20030;-74
2021/07/18 05:20:00;;;;;;;41.28;19.88;;;;;;;;;;4955341;28;20031;-74
2021/07/18 05:22:26;;;;;;;36.30;17.40;;;;;;;;;;4972840;28;20038;-74
2021/07/18 05:24:53;;;;;;;37.88;18.80;;;;;;;;;;4973172;28;20027;-74
2021/07/18 05:27:21;;;;;;;35.35;15.38;;;;;;;;;;4955293;28;20043;-74
2021/07/18 05:29:47;;;;;;;33.13;16.85;;;;;;;;;;4955017;28;20027;-74
2021/07/18 05:32:12;;;;;;;36.42;16.17;;;;;;;;;;4955040;28;20395;-74
2021/07/18 05:34:38;;;;;;;28.30;16.05;;;;;;;;;;4954686;28;20387;-73
2021/07/18 05:37:05;;;;;;;34.65;17.63;;;;;;;;;;4954802;28;20390;-73
2021/07/18 05:39:31;;;;;;;29.75;16.08;;;;;;;;;;4972003;28;20038;-74
2021/07/18 05:41:57;;;;;;;37.35;17.10;;;;;;;;;;4954695;28;20061;-73
2021/07/18 05:44:22;;;;;;;33.88;15.07;;;;;;;;;;4954747;28;20031;-74
2021/07/18 05:46:48;;;;;;;33.92;16.05;;;;;;;;;;4954552;28;20027;-74
2021/07/18 05:49:13;;;;;;;28.42;15.27;;;;;;;;;;4954846;28;20026;-73
2021/07/18 05:51:39;;;;;;;34.00;15.77;;;;;;;;;;4954322;28;20027;-73
2021/07/18 05:54:04;;;;;;;30.30;14.30;;;;;;;;;;4954724;28;20478;-73
2021/07/18 05:56:30;;;;;;;31.73;15.05;;;;;;;;;;4971634;28;20030;-74
2021/07/18 05:58:55;;;;;;;35.42;15.82;;;;;;;;;;4972226;28;20034;-73
2021/07/18 06:01:21;;;;;;;33.83;15.00;;;;;;;;;;4954720;28;20058;-72
2021/07/18 06:03:46;;;;;;;29.52;14.00;;;;;;;;;;4954157;28;20399;-73
2021/07/18 06:06:12;;;;;;;29.88;13.95;;;;;;;;;;4954420;28;20035;-73
2021/07/18 06:08:37;;;;;;;24.20;14.30;;;;;;;;;;4954082;28;20053;-74
2021/07/18 06:11:02;;;;;;;27.20;15.10;;;;;;;;;;4971525;28;20133;-73
2021/07/18 06:13:28;;;;;;;29.05;15.75;;;;;;;;;;4971375;28;20033;-74
2021/07/18 06:15:55;;;;;;;34.33;15.80;;;;;;;;;;4954208;28;20035;-74
2021/07/18 06:18:20;;;;;;;29.33;15.35;;;;;;;;;;4953855;28;20038;-74
2021/07/18 06:20:46;;;;;;;27.35;14.13;;;;;;;;;;4953921;28;20038;-73
2021/07/18 06:23:11;;;;;;;35.83;15.65;;;;;;;;;;4954016;28;20042;-74
2021/07/18 06:25:37;;;;;;;24.67;14.13;;;;;;;;;;4953655;28;20038;-74
2021/07/18 06:28:02;;;;;;;26.33;13.98;;;;;;;;;;4971250;28;20046;-73
2021/07/18 06:30:28;;;;;;;30.02;15.25;;;;;;;;;;4971269;28;20057;-74
2021/07/18 06:32:53;;;;;;;34.70;15.35;;;;;;;;;;4970776;28;20034;-74
2021/07/18 06:35:19;;;;;;;27.65;13.93;;;;;;;;;;4971278;28;20109;-74
2021/07/18 06:37:44;;;;;;;25.48;13.68;;;;;;;;;;4969516;28;20030;-74
2021/07/18 06:40:11;;;;;;;28.33;13.90;;;;;;;;;;4971194;28;20397;-74
2021/07/18 06:42:36;;;;;;;25.42;14.02;;;;;;;;;;4952963;28;20055;-75
2021/07/18 06:45:04;;;;;;;22.38;14.52;;;;;;;;;;4953657;28;20085;-73
2021/07/18 06:47:29;;;;;;;26.08;15.68;;;;;;;;;;4970826;28;20041;-74
2021/07/18 06:49:57;;;;;;;34.13;15.18;;;;;;;;;;4971018;28;20019;-73
2021/07/18 06:52:24;;;;;;;26.65;15.20;;;;;;;;;;4953666;28;20030;-74
2021/07/18 06:54:50;;;;;;;24.52;14.43;;;;;;;;;;4970822;28;20065;-73
2021/07/18 06:57:16;;;;;;;24.13;13.63;;;;;;;;;;4953549;28;20463;-74
2021/07/18 06:59:41;;;;;;;29.27;15.98;;;;;;;;;;4970663;28;20034;-73
2021/07/18 07:02:07;;;;;;;34.63;15.43;;;;;;;;;;4970592;28;20084;-73
2021/07/18 07:04:33;;;;;;;24.08;13.95;;;;;;;;;;4969228;28;20415;-73
2021/07/18 07:06:59;;;;;;;26.02;13.63;;;;;;;;;;4970596;28;20026;-73
2021/07/18 07:09:24;;;;;;;25.52;13.45;;;;;;;;;;4970967;28;20030;-73
2021/07/18 07:11:50;;;;;;;25.42;12.45;;;;;;;;;;4953105;28;20486;-73
2021/07/18 07:14:15;;;;;;;28.08;14.23;;;;;;;;;;4970875;28;20467;-74
2021/07/18 07:16:41;;;;;;;29.13;14.27;;;;;;;;;;4969209;28;20130;-74
2021/07/18 07:19:06;;;;;;;22.90;13.57;;;;;;;;;;4970512;28;20033;-74
2021/07/18 07:21:32;;;;;;;30.48;14.85;;;;;;;;;;4952900;28;20391;-73
2021/07/18 07:23:57;;;;;;;26.63;14.45;;;;;;;;;;4953194;28;20448;-73
2021/07/18 07:26:23;;;;;;;28.50;14.93;;;;;;;;;;4952965;28;20030;-74
2021/07/18 07:28:48;;;;;;;30.10;15.15;;;;;;;;;;4970327;28;20023;-73
2021/07/18 07:31:14;;;;;;;21.88;14.60;;;;;;;;;;4970569;28;20031;-73
2021/07/18 07:33:40;;;;;;;26.85;14.40;;;;;;;;;;4952816;28;20034;-73
2021/07/18 07:36:05;;;;;;;29.92;15.32;;;;;;;;;;4970675;28;20357;-74
2021/07/18 07:38:32;;;;;;;31.88;15.40;;;;;;;;;;4970258;28;20085;-74
2021/07/18 07:40:58;;;;;;;26.08;14.25;;;;;;;;;;4970212;28;20053;-73
2021/07/18 07:43:24;;;;;;;28.33;15.35;;;;;;;;;;4970220;28;20653;-74
2021/07/18 07:45:50;;;;;;;20.73;12.40;;;;;;;;;;4955619;28;20030;-73
2021/07/18 07:48:16;;;;;;;28.67;13.10;;;;;;;;;;4956707;28;20022;-74
2021/07/18 07:50:41;;;;;;;24.27;12.60;;;;;;;;;;4956760;28;20027;-75
2021/07/18 07:53:07;;;;;;;24.52;12.85;;;;;;;;;;4973715;28;20031;-74
2021/07/18 07:55:33;;;;;;;21.65;12.60;;;;;;;;;;4956379;28;20126;-75
2021/07/18 07:57:59;;;;;;;28.00;12.88;;;;;;;;;;4956995;28;20169;-74
2021/07/18 08:00:25;;;;;;;22.85;13.50;;;;;;;;;;4956856;28;20121;-74
2021/07/18 08:02:51;;;;;;;30.20;12.25;;;;;;;;;;4956735;28;20027;-74
2021/07/18 08:05:18;;;;;;;19.90;11.70;;;;;;;;;;4974087;28;20075;-74
2021/07/18 08:07:44;;;;;;;27.38;11.65;;;;;;;;;;4973824;28;20050;-74
2021/07/18 08:10:13;;;;;;;22.40;12.15;;;;;;;;;;4973976;28;20027;-74
2021/07/18 08:12:38;;;;;;;25.15;10.10;;;;;;;;;;4955975;28;20037;-73
2021/07/18 08:15:06;;;;;;;15.52;10.13;;;;;;;;;;4973525;28;20030;-73
2021/07/18 08:17:51;;;;;;;16.88;9.48;;;;;;;;;;4973580;28;20109;-74
2021/07/18 08:20:22;;;;;;;27.25;10.52;;;;;;;;;;4956056;28;20023;-74
2021/07/18 08:22:49;;;;;;;21.70;10.05;;;;;;;;;;4973598;28;20050;-74
2021/07/18 08:25:17;;;;;;;17.48;9.85;;;;;;;;;;4956970;28;20033;-74
2021/07/18 08:27:43;;;;;;;16.88;9.13;;;;;;;;;;4973832;28;20031;-73
2021/07/18 08:30:09;;;;;;;26.60;9.30;;;;;;;;;;4973551;28;20125;-74
2021/07/18 08:32:35;;;;;;;16.63;8.50;;;;;;;;;;4973889;28;20081;-75
2021/07/18 08:35:01;;;;;;;17.83;8.68;;;;;;;;;;4956323;28;20035;-74
2021/07/18 08:37:27;;;;;;;20.75;8.63;;;;;;;;;;4956208;28;20047;-74
2021/07/18 08:39:53;;;;;;;20.10;10.27;;;;;;;;;;4972945;28;20031;-73
2021/07/18 08:42:18;;;;;;;17.48;8.35;;;;;;;;;;4973123;28;20122;-74
2021/07/18 08:44:44;;;;;;;16.40;7.85;;;;;;;;;;4972984;28;20471;-74
2021/07/18 08:47:10;;;;;;;15.55;7.05;;;;;;;;;;4973303;28;20027;-73
2021/07/18 08:49:39;;;;;;;11.52;7.28;;;;;;;;;;4972854;28;20426;-74
2021/07/18 08:52:06;;;;;;;16.20;7.70;;;;;;;;;;4973017;28;20025;-74
2021/07/18 08:54:32;;;;;;;16.90;8.10;;;;;;;;;;4955649;28;20494;-73
2021/07/18 08:57:00;;;;;;;11.05;7.88;;;;;;;;;;4972606;28;20067;-74
2021/07/18 08:59:26;;;;;;;16.45;7.95;;;;;;;;;;4971549;28;20455;-75
2021/07/18 09:01:53;;;;;;;14.45;7.47;;;;;;;;;;4972860;28;20526;-74
2021/07/18 09:04:18;;;;;;;16.50;7.57;;;;;;;;;;4955730;28;20069;-74
2021/07/18 09:06:49;;;;;;;14.68;6.78;;;;;;;;;;4955285;28;20027;-76
2021/07/18 09:09:17;;;;;;;11.95;6.60;;;;;;;;;;4973219;28;20107;-76
2021/07/18 09:11:44;;;;;;;13.07;6.97;;;;;;;;;;4955422;28;20026;-75
2021/07/18 09:14:12;;;;;;;13.70;6.88;;;;;;;;;;4972844;28;20026;-75
2021/07/18 09:16:42;;;;;;;17.75;6.85;;;;;;;;;;4972767;28;20498;-76
2021/07/18 09:19:29;;;;;;;19.45;7.18;;;;;;;;;;4955689;28;20030;-76
2021/07/18 09:21:57;;;;;;;16.00;7.15;;;;;;;;;;4955007;28;20383;-75
2021/07/18 09:24:25;;;;;;;12.85;7.10;;;;;;;;;;4973429;28;20031;-76
2021/07/18 09:27:17;;;;;;;13.32;7.38;;;;;;;;;;4955045;28;20089;-76
2021/07/18 09:29:51;;;;;;;10.98;6.72;;;;;;;;;;4954697;28;20027;-76
2021/07/18 09:32:24;;;;;;;15.70;7.47;;;;;;;;;;4955174;28;20078;-74
2021/07/18 09:34:49;;;;;;;16.20;7.55;;;;;;;;;;4954819;28;20031;-76
2021/07/18 09:37:18;;;;;;;14.18;6.32;;;;;;;;;;4972502;28;20050;-75
2021/07/18 09:39:49;;;;;;;13.07;6.40;;;;;;;;;;4954559;28;20023;-76
2021/07/18 09:42:37;;;;;;;13.98;5.60;;;;;;;;;;4971998;28;20055;-75
2021/07/18 09:45:07;;;;;;;12.73;6.22;;;;;;;;;;4954736;28;20039;-75
2021/07/18 09:47:33;;;;;;;10.63;6.50;;;;;;;;;;4972257;28;20026;-76
2021/07/18 09:49:59;;;;;;;11.68;6.25;;;;;;;;;;4954326;28;20100;-75
2021/07/18 09:52:27;;;;;;;16.48;6.88;;;;;;;;;;4954539;28;20045;-76
2021/07/18 09:54:56;;;;;;;12.05;6.30;;;;;;;;;;4954163;28;20120;-76
2021/07/18 09:57:33;;;;;;;15.20;7.03;;;;;;;;;;4971713;28;20035;-76
2021/07/18 09:59:59;;;;;;;17.85;7.03;;;;;;;;;;4953860;28;20035;-75
2021/07/18 10:02:26;;;;;;;10.07;6.32;;;;;;;;;;4954394;28;20042;-75
2021/07/18 10:04:54;;;;;;;17.20;6.60;;;;;;;;;;4954190;28;20117;-75
2021/07/18 10:07:22;;;;;;;10.57;6.28;;;;;;;;;;4953702;28;20534;-75
2021/07/18 10:09:49;;;;;;;10.68;6.20;;;;;;;;;;4953960;28;20027;-74
2021/07/18 10:12:15;;;;;;;13.38;6.30;;;;;;;;;;4971771;28;20356;-77
2021/07/18 10:14:42;;;;;;;13.68;5.75;;;;;;;;;;4971217;28;20475;-74
2021/07/18 10:17:07;;;;;;;12.73;6.45;;;;;;;;;;4954178;28;20018;-75
2021/07/18 10:19:33;;;;;;;13.13;6.68;;;;;;;;;;4971684;28;20038;-76
2021/07/18 10:21:59;;;;;;;12.93;6.28;;;;;;;;;;4953909;28;20453;-75
2021/07/18 10:24:26;;;;;;;15.60;6.22;;;;;;;;;;4953967;28;20042;-75
2021/07/18 10:26:52;;;;;;;17.25;6.30;;;;;;;;;;4953217;28;20027;-77
2021/07/18 10:29:17;;;;;;;11.95;6.00;;;;;;;;;;4969988;28;20031;-76
2021/07/18 10:31:51;;;;;;;11.50;5.50;;;;;;;;;;4970902;28;20066;-75
2021/07/18 10:34:19;;;;;;;12.50;6.10;;;;;;;;;;4971257;28;20038;-76
2021/07/18 10:36:49;;;;;;;8.57;5.47;;;;;;;;;;4953685;28;20026;-75
2021/07/18 10:39:35;;;;;;;17.15;6.63;;;;;;;;;;4953852;28;20030;-74
2021/07/18 10:42:03;;;;;;;16.08;5.30;;;;;;;;;;4953436;28;20051;-75
2021/07/18 10:44:51;;;;;;;17.75;5.55;;;;;;;;;;4953465;28;20491;-75
2021/07/18 10:47:17;;;;;;;9.80;6.13;;;;;;;;;;4970548;28;20030;-75
2021/07/18 10:49:55;;;;;;;14.00;5.55;;;;;;;;;;4970783;28;20034;-76
2021/07/18 10:52:34;;;;;;;7.97;4.80;;;;;;;;;;4953465;28;20351;-76
2021/07/18 10:55:19;;;;;;;14.60;4.78;;;;;;;;;;4953195;28;20039;-76
2021/07/18 10:57:49;;;;;;;20.63;5.40;;;;;;;;;;4970632;28;20029;-75
2021/07/18 11:00:29;;;;;;;12.35;5.45;;;;;;;;;;4953661;28;20029;-76
2021/07/18 11:03:06;;;;;;;11.30;5.65;;;;;;;;;;4970625;28;20050;-75
2021/07/18 11:06:17;;;;;;;7.90;4.82;;;;;;;;;;4953407;28;20049;-75
2021/07/18 11:09:22;;;;;;;16.08;5.65;;;;;;;;;;4970445;28;20077;-74
2021/07/18 11:11:48;;;;;;;10.80;5.30;;;;;;;;;;4928791;28;20035;-76
2021/07/18 11:14:36;;;;;;;11.85;5.55;;;;;;;;;;4970643;28;20023;-75
2021/07/18 11:17:23;;;;;;;14.45;4.53;;;;;;;;;;4953076;28;20038;-75
2021/07/18 11:20:04;;;;;;;12.35;5.57;;;;;;;;;;4954978;28;20026;-76
2021/07/18 11:23:00;;;;;;;14.93;5.25;;;;;;;;;;4973028;28;20524;-76
2021/07/18 11:26:04;;;;;;;12.05;5.43;;;;;;;;;;4952918;28;20372;-76
2021/07/18 11:28:35;;;;;;;9.82;4.70;;;;;;;;;;4952734;28;20538;-76
2021/07/18 11:31:10;;;;;;;12.48;6.43;;;;;;;;;;4952506;28;20049;-76
2021/07/18 11:33:49;;;;;;;10.70;5.40;;;;;;;;;;4952696;28;20479;-77
2021/07/18 11:36:18;;;;;;;17.90;6.28;;;;;;;;;;4952773;28;20031;-75
2021/07/18 11:38:43;;;;;;;13.68;6.13;;;;;;;;;;4952737;28;20031;-75
2021/07/18 11:41:35;;;;;;;16.75;5.65;;;;;;;;;;4968565;28;20046;-75
2021/07/18 11:44:03;;;;;;;8.98;4.82;;;;;;;;;;4967041;28;20047;-75
2021/07/18 11:46:37;;;;;;;11.48;5.53;;;;;;;;;;4952717;28;20022;-76
2021/07/18 11:49:05;;;;;;;13.85;6.10;;;;;;;;;;4969616;28;20046;-76
2021/07/18 11:51:33;;;;;;;11.95;5.53;;;;;;;;;;4952589;28;20038;-74
2021/07/18 11:53:59;;;;;;;15.57;5.38;;;;;;;;;;4952672;28;20390;-75
2021/07/18 11:56:34;;;;;;;19.58;6.43;;;;;;;;;;4952885;28;20103;-75
2021/07/18 11:59:05;;;;;;;19.38;5.63;;;;;;;;;;4969956;28;20046;-75
2021/07/18 12:01:32;;;;;;;14.63;6.68;;;;;;;;;;4952590;28;20510;-75
2021/07/18 12:03:58;;;;;;;22.20;5.72;;;;;;;;;;4970093;28;20483;-76
2021/07/18 12:06:30;;;;;;;15.18;6.32;;;;;;;;;;4952816;28;20080;-76
2021/07/18 12:09:09;;;;;;;9.55;5.32;;;;;;;;;;4952107;28;20026;-76
2021/07/18 12:11:36;;;;;;;14.63;6.20;;;;;;;;;;4969797;28;20027;-75
2021/07/18 12:14:02;;;;;;;11.90;5.63;;;;;;;;;;4952202;28;20065;-76
2021/07/18 12:16:28;;;;;;;13.93;5.90;;;;;;;;;;4952502;28;20471;-75
2021/07/18 12:18:55;;;;;;;14.45;6.97;;;;;;;;;;4969480;28;20038;-75
2021/07/18 12:21:36;;;;;;;18.73;6.93;;;;;;;;;;4969998;28;20031;-75
2021/07/18 12:24:26;;;;;;;9.93;6.68;;;;;;;;;;4952334;28;20033;-76
2021/07/18 12:26:57;;;;;;;11.05;5.85;;;;;;;;;;4969592;28;20478;-75
2021/07/18 12:29:24;;;;;;;16.67;6.60;;;;;;;;;;4952380;28;20509;-75
2021/07/18 12:31:50;;;;;;;16.63;6.55;;;;;;;;;;4954966;28;20396;-75
2021/07/18 12:34:18;;;;;;;12.15;6.55;;;;;;;;;;4955843;28;20077;-76
2021/07/18 12:37:02;;;;;;;20.67;7.43;;;;;;;;;;4955954;28;20037;-75
2021/07/18 12:39:34;;;;;;;31.05;7.57;;;;;;;;;;4972968;28;20023;-76
2021/07/18 12:42:03;;;;;;;15.48;7.47;;;;;;;;;;4955095;28;20062;-76
2021/07/18 12:44:33;;;;;;;19.63;7.30;;;;;;;;;;4955393;28;20113;-76
2021/07/18 12:47:28;;;;;;;16.40;7.78;;;;;;;;;;4972918;28;20026;-76
2021/07/18 12:50:12;;;;;;;19.70;8.10;;;;;;;;;;4955357;28;20085;-76
2021/07/18 12:53:05;;;;;;;20.35;7.30;;;;;;;;;;4955674;28;20023;-76
2021/07/18 12:55:42;;;;;;;14.07;8.15;;;;;;;;;;4955789;28;20065;-76
2021/07/18 12:58:32;;;;;;;15.77;8.35;;;;;;;;;;4972677;28;20045;-75
2021/07/18 13:01:12;;;;;;;22.08;8.60;;;;;;;;;;4948065;28;20046;-76
2021/07/18 13:03:52;;;;;;;;;;;;;;;;;;4956132;28;20146;-77
2021/07/18 13:06:18;;;;;;;17.17;8.32;;;;;;;;;;4973043;28;19960;-75
2021/07/18 13:08:48;;;;;;;16.77;8.93;;;;;;;;;;4972995;28;20260;-76
2021/07/18 13:11:33;;;;;;;;;;;;;;;;;;4973198;28;20102;-76
2021/07/18 13:13:58;;;;;;;20.10;8.10;;;;;;;;;;4971113;28;19910;-76
2021/07/18 13:16:34;;;;;;;14.82;9.30;;;;;;;;;;4972743;28;20104;-76
2021/07/18 13:19:08;;;;;;;20.00;9.48;;;;;;;;;;4972506;28;20108;-76
2021/07/18 13:21:34;;;;;;;15.45;9.15;;;;;;;;;;4972546;28;20037;-75
2021/07/18 13:23:59;;;;;;;22.50;9.77;;;;;;;;;;4972315;28;20034;-76
2021/07/18 13:26:39;;;;;;;14.45;8.85;;;;;;;;;;4972863;28;20043;-75
2021/07/18 13:29:19;;;;;;;14.57;9.15;;;;;;;;;;4972476;28;20025;-76
2021/07/18 13:31:48;;;;;;;23.13;9.88;;;;;;;;;;4972666;28;20037;-76
2021/07/18 13:34:15;;;;;;;19.13;8.90;;;;;;;;;;4971974;28;20023;-76
2021/07/18 13:36:41;;;;;;;19.98;8.55;;;;;;;;;;4954811;28;20393;-76
2021/07/18 13:39:15;;;;;;;14.63;7.55;;;;;;;;;;4954529;28;20113;-75
2021/07/18 13:42:00;;;;;;;13.85;7.68;;;;;;;;;;4971808;28;20117;-75
2021/07/18 13:44:26;;;;;;;15.65;7.40;;;;;;;;;;4972312;28;20037;-75
2021/07/18 13:46:51;;;;;;;19.60;7.25;;;;;;;;;;4972317;28;20022;-76
2021/07/18 13:49:16;;;;;;;14.43;7.32;;;;;;;;;;4954848;28;20114;-76
2021/07/18 13:51:42;;;;;;;11.95;7.30;;;;;;;;;;4954798;28;20025;-76
2021/07/18 13:54:07;;;;;;;15.00;7.13;;;;;;;;;;4954457;28;20596;-76
2021/07/18 13:56:33;;;;;;;15.98;7.53;;;;;;;;;;4954487;28;20031;-76
2021/07/18 13:58:58;;;;;;;15.20;7.55;;;;;;;;;;4954118;28;20122;-76
2021/07/18 14:01:24;;;;;;;14.77;7.45;;;;;;;;;;4954319;28;20455;-76
2021/07/18 14:03:49;;;;;;;11.88;8.25;;;;;;;;;;4971709;28;20027;-75
2021/07/18 14:06:15;;;;;;;15.27;7.75;;;;;;;;;;4954089;28;20348;-75
2021/07/18 14:08:41;;;;;;;15.50;6.28;;;;;;;;;;4971637;28;20113;-75
2021/07/18 14:11:07;;;;;;;11.80;6.93;;;;;;;;;;4954067;28;20033;-75
2021/07/18 14:13:32;;;;;;;11.02;6.65;;;;;;;;;;4971742;28;20131;-76
2021/07/18 14:15:58;;;;;;;11.23;5.45;;;;;;;;;;4971478;28;20447;-76
2021/07/18 14:18:24;;;;;;;11.63;4.72;;;;;;;;;;4954147;28;20510;-76
2021/07/18 14:20:52;;;;;;;10.10;5.05;;;;;;;;;;4971454;28;20457;-75
2021/07/18 14:23:17;;;;;;;12.77;4.10;;;;;;;;;;4953875;28;20026;-77
2021/07/18 14:25:43;;;;;;;7.72;3.88;;;;;;;;;;4973284;28;20026;-76
2021/07/18 14:28:08;;;;;;;10.68;3.83;;;;;;;;;;4976370;28;20505;-76
2021/07/18 14:30:34;;;;;;;8.88;4.15;;;;;;;;;;4976835;28;20403;-75